To NAV CANADA Home Page Login to a new session Search on AWWS site Feedback and Comments Disclaimer Vers la page française équivalente Tips FAQ What's new on the site To the Forecasts and Observations / NOTAM section To "File a Flight Plan" website Publications and other links Update of the User's profile FIC Telephone Numbers My Weather Data Folder Route Weather Data Regional Weather Data Local Weather Data To the Forecasts and Observations / NOTAM section
Request Generated 05/24/2015 at 18:55:38 UTC . Weather information available at that time is displayed.

METAR/TAF

VANCOUVER/VANCOUVER INTL/BC    

METAR CYVR 241800Z 14006KT 12SM SCT017 OVC035 15/10 A3011 RMK SC3SC5
SLP195=
METAR CYVR 241700Z 15010KT 110V170 12SM FEW013 BKN017 BKN030 OVC036
15/11 A3012 RMK SC1SC4CF1SC2 SLP198=
METAR CYVR 241600Z 13006KT 12SM BKN014 OVC036 14/11 A3013 RMK SC5SC3
SLP201=

TAF CYVR 241738Z 2418/2524 14008KT P6SM SCT012 BKN040 OVC060 TEMPO
2418/2420 BKN012 OVC040
BECMG 2418/2420 24008KT
FM242200 23008KT P6SM SCT040
BECMG 2503/2505 10008KT
FM250600 10008KT P6SM FEW015 OVC030
FM251400 VRB03KT P6SM OVC015
FM252000 24008KT P6SM BKN030
RMK NXT FCST BY 242100Z=
Your time UTC time
Weather data provided by Environment Canada and NAV CANADA